.
WxDataArchive / Data Records for 2010-10-17
2010-10-16 October 2010 2010-10-18

Data Records for Sunday, 17 October 2010

Time	Temp	Chill	HIndex	Humid	Dewpt	 Wind 	HiWind	WindDir	Rain 	Barom 
-----	----	-----	------	-----	-----	------	------	-------	-----	----- 
00:00	54.7	54.7	54.7	53	37.9	0	2	248	0.00	30.011 
00:05	54.7	54.7	54.7	53	37.9	0	3	248	0.00	30.011 
00:10	54.7	54.7	54.7	53	37.9	0	3	248	0.00	30.011 
00:15	54.8	54.8	54.8	52	37.5	0	2	270	0.00	30.006 
00:20	55.0	55.0	55.0	52	37.7	0	3	248	0.00	30.006 
00:25	55.1	55.1	55.1	52	37.8	0	2	248	0.00	30.006 
00:30	55.1	55.1	55.1	51	37.3	0	2	248	0.00	30.000 
00:35	55.3	55.3	55.3	51	37.5	0	3	248	0.00	30.000 
00:40	55.3	55.3	55.3	51	37.5	0	1	248	0.00	30.000 
00:45	55.3	55.3	55.3	51	37.5	0	1	248	0.00	29.996 
00:50	55.3	55.3	55.3	51	37.5	0	1	248	0.00	29.996 
00:55	55.4	55.4	55.4	50	37.1	1	3	248	0.00	29.996 
01:00	55.4	55.4	55.4	50	37.1	0	2	248	0.00	29.993 
01:05	55.4	55.4	55.4	50	37.1	0	2	248	0.00	29.993 
01:10	55.4	55.4	55.4	50	37.1	0	2	248	0.00	29.993 
01:15	55.4	55.4	55.4	50	37.1	0	3	248	0.00	29.990 
01:20	55.6	55.6	55.6	50	37.3	1	4	270	0.00	29.990 
01:25	55.7	55.7	55.7	50	37.3	1	4	248	0.00	29.990 
01:30	55.7	55.7	55.7	49	36.8	1	3	248	0.00	29.987 
01:35	55.9	55.9	55.9	49	37.0	1	4	248	0.00	29.987 
01:40	56.0	56.0	56.0	49	37.1	1	3	248	0.00	29.987 
01:45	56.0	56.0	56.0	49	37.1	1	4	270	0.00	29.989 
01:50	56.0	56.0	56.0	49	37.1	1	4	248	0.00	29.989 
01:55	55.9	55.9	55.9	49	37.0	1	3	248	0.00	29.989 
02:00	55.7	55.7	55.7	50	37.3	1	4	248	0.00	29.989 
02:05	55.6	55.6	55.6	50	37.3	1	3	248	0.00	29.989 
02:10	55.4	55.4	55.4	50	37.1	1	2	248	0.00	29.989 
02:15	55.3	55.3	55.3	50	37.0	1	3	248	0.00	29.990 
02:20	55.1	55.1	55.1	51	37.3	1	3	248	0.00	29.990 
02:25	55.0	55.0	55.0	51	37.2	1	4	225	0.00	29.990 
02:30	54.8	54.8	54.8	52	37.5	0	2	225	0.00	29.991 
02:35	54.7	54.7	54.7	52	37.4	0	2	225	0.00	29.991 
02:40	54.5	54.5	54.5	52	37.2	0	2	225	0.00	29.991 
02:45	54.4	54.4	54.4	52	37.1	0	2	225	0.00	29.992 
02:50	54.2	54.2	54.2	53	37.4	0	1	225	0.00	29.992 
02:55	54.2	54.2	54.2	53	37.4	0	2	225	0.00	29.992 
03:00	54.1	54.1	54.1	53	37.4	0	1	225	0.00	29.991 
03:05	54.1	54.1	54.1	53	37.4	0	2	225	0.00	29.991 
03:10	54.1	54.1	54.1	53	37.4	1	3	292	0.00	29.991 
03:15	53.9	53.9	53.9	53	37.2	0	1	292	0.00	29.991 
03:20	53.9	53.9	53.9	54	37.6	0	2	292	0.00	29.991 
03:25	53.8	53.8	53.8	54	37.5	1	3	292	0.00	29.991 
03:30	53.8	53.8	53.8	54	37.5	0	1	292	0.00	29.991 
03:35	53.6	53.6	53.6	54	37.4	0	2	292	0.00	29.991 
03:40	53.5	53.5	53.5	54	37.3	0	2	292	0.00	29.991 
03:45	53.3	53.3	53.3	55	37.5	0	2	292	0.00	29.991 
03:50	53.3	53.3	53.3	55	37.5	1	3	292	0.00	29.991 
03:55	53.2	53.2	53.2	55	37.5	0	2	292	0.00	29.991 
04:00	53.1	53.1	53.1	56	37.8	0	2	292	0.00	29.992 
04:05	52.9	52.9	52.9	56	37.6	0	2	292	0.00	29.992 
04:10	52.8	52.8	52.8	56	37.5	0	1	292	0.00	29.992 
04:15	52.5	52.5	52.5	57	37.7	0	2	292	0.00	29.993 
04:20	52.3	52.3	52.3	57	37.5	0	1	292	0.00	29.993 
04:25	52.2	52.2	52.2	57	37.4	0	1	292	0.00	29.993 
04:30	52.0	52.0	52.0	58	37.7	0	1	292	0.00	29.994 
04:35	51.9	51.9	51.9	58	37.6	0	0	---	0.00	29.994 
04:40	51.6	51.6	51.6	58	37.3	0	1	292	0.00	29.994 
04:45	51.4	51.4	51.4	59	37.6	0	1	292	0.00	29.998 
04:50	51.1	51.1	51.1	59	37.3	0	0	---	0.00	29.998 
04:55	51.0	51.0	51.0	60	37.6	0	1	292	0.00	29.998 
05:00	50.8	50.8	50.8	60	37.4	0	1	292	0.00	30.007 
05:05	50.7	50.7	50.7	61	37.7	0	0	---	0.00	30.007 
05:10	50.4	50.4	50.4	61	37.5	0	0	---	0.00	30.007 
05:15	50.2	50.2	50.2	62	37.7	0	1	292	0.00	30.011 
05:20	49.9	49.9	49.9	62	37.4	0	0	---	0.00	30.011 
05:25	49.6	49.6	49.6	63	37.5	0	0	---	0.00	30.011 
05:30	49.4	49.4	49.4	64	37.7	0	0	---	0.00	30.016 
05:35	48.9	48.9	48.9	65	37.7	0	0	---	0.00	30.016 
05:40	48.5	48.5	48.5	66	37.7	0	0	---	0.00	30.016 
05:45	48.2	48.2	48.2	66	37.4	0	0	---	0.00	30.026 
05:50	47.7	47.7	47.7	67	37.3	0	0	---	0.00	30.026 
05:55	47.6	47.6	47.6	68	37.6	0	0	---	0.00	30.026 
06:00	47.3	47.3	47.3	69	37.7	0	0	---	0.00	30.028 
06:05	47.0	47.0	47.0	69	37.4	0	0	---	0.00	30.028 
06:10	46.8	46.8	46.8	70	37.5	0	0	---	0.00	30.028 
06:15	46.5	46.5	46.5	71	37.6	0	0	---	0.00	30.036 
06:20	46.4	46.4	46.4	71	37.5	0	0	---	0.00	30.036 
06:25	46.2	46.2	46.2	72	37.7	0	0	---	0.00	30.036 
06:30	46.1	46.1	46.1	72	37.6	0	0	---	0.00	30.045 
06:35	46.1	46.1	46.1	73	37.9	0	1	292	0.00	30.045 
06:40	46.1	46.1	46.1	73	37.9	0	1	292	0.00	30.045 
06:45	46.1	46.1	46.1	73	37.9	0	1	292	0.00	30.056 
06:50	46.1	46.1	46.1	74	38.3	0	1	292	0.00	30.056 
06:55	46.4	46.4	46.4	74	38.6	0	0	---	0.00	30.056 
07:00	46.7	46.7	46.7	73	38.5	0	0	---	0.00	30.058 
07:05	46.8	46.8	46.8	73	38.6	0	0	---	0.00	30.058 
07:10	47.0	47.0	47.0	74	39.1	0	0	---	0.00	30.058 
07:15	47.0	47.0	47.0	74	39.1	0	0	---	0.00	30.059 
07:20	47.0	47.0	47.0	74	39.1	0	0	---	0.00	30.059 
07:25	46.8	46.8	46.8	74	39.0	0	0	---	0.00	30.059 
07:30	46.4	46.4	46.4	75	38.9	0	0	---	0.00	30.055 
07:35	46.1	46.1	46.1	76	39.0	0	0	---	0.00	30.055 
07:40	45.8	45.8	45.8	76	38.7	0	0	---	0.00	30.055 
07:45	45.5	45.5	45.5	77	38.7	0	0	---	0.00	30.062 
07:50	45.2	45.2	45.2	77	38.4	0	0	---	0.00	30.062 
07:55	44.9	44.9	44.9	77	38.1	0	0	---	0.00	30.062 
08:00	44.6	44.6	44.6	78	38.2	0	0	---	0.00	30.064 
08:05	44.3	44.3	44.3	79	38.2	0	0	---	0.00	30.064 
08:10	44.1	44.1	44.1	80	38.3	0	0	---	0.00	30.064 
08:15	43.9	43.9	43.9	81	38.5	0	0	---	0.00	30.070 
08:20	43.8	43.8	43.8	81	38.4	0	0	---	0.00	30.070 
08:25	43.8	43.8	43.8	81	38.4	0	0	---	0.00	30.070 
08:30	43.6	43.6	43.6	82	38.5	0	0	---	0.00	30.081 
08:35	43.6	43.6	43.6	83	38.8	0	0	---	0.00	30.081 
08:40	43.6	43.6	43.6	83	38.8	0	0	---	0.00	30.081 
08:45	43.9	43.9	43.9	84	39.4	0	0	---	0.00	30.079 
08:50	44.5	44.5	44.5	84	40.0	0	0	---	0.00	30.079 
08:55	45.1	45.1	45.1	84	40.6	0	0	---	0.00	30.079 
09:00	45.5	45.5	45.5	84	41.0	0	0	---	0.00	30.077 
09:05	46.1	46.1	46.1	84	41.5	0	0	---	0.00	30.077 
09:10	46.7	46.7	46.7	83	41.8	0	0	---	0.00	30.077 
09:15	47.4	47.4	47.4	82	42.2	0	0	---	0.00	30.083 
09:20	48.2	48.2	48.2	81	42.6	0	0	---	0.00	30.083 
09:25	48.9	48.9	48.9	79	42.7	0	0	---	0.00	30.083 
09:30	49.8	49.8	49.8	77	42.9	0	1	292	0.00	30.084 
09:35	50.5	50.5	50.5	76	43.2	0	1	292	0.00	30.084 
09:40	51.4	51.4	51.4	73	43.0	0	1	292	0.00	30.084 
09:45	52.0	52.0	52.0	71	42.9	0	2	292	0.00	30.085 
09:50	52.6	52.6	52.6	69	42.7	0	0	---	0.00	30.085 
09:55	53.2	53.2	53.2	68	42.9	0	1	292	0.00	30.085 
10:00	53.8	53.8	53.8	66	42.7	0	2	292	0.00	30.090 
10:05	54.5	54.5	54.5	63	42.2	0	2	292	0.00	30.090 
10:10	55.3	55.3	55.3	61	42.1	0	2	292	0.00	30.090 
10:15	56.2	56.2	56.2	60	42.5	0	3	292	0.00	30.089 
10:20	56.7	56.7	56.7	56	41.2	0	3	292	0.00	30.089 
10:25	57.5	57.5	57.5	56	41.9	0	2	112	0.00	30.089 
10:30	58.1	58.1	58.1	53	41.1	0	3	90	0.00	30.088 
10:35	58.6	58.6	58.6	52	41.0	0	4	112	0.00	30.088 
10:40	58.9	58.9	58.9	50	40.3	0	2	112	0.00	30.088 
10:45	59.3	59.3	59.3	49	40.1	0	3	112	0.00	30.091 
10:50	60.1	60.1	60.1	46	39.2	0	3	90	0.00	30.091 
10:55	60.4	60.4	60.4	43	37.8	0	3	90	0.00	30.091 
11:00	60.9	60.9	60.9	43	38.3	0	3	112	0.00	30.091 
11:05	61.2	61.2	61.2	42	37.9	1	3	112	0.00	30.091 
11:10	61.3	61.3	61.3	41	37.4	0	1	112	0.00	30.091 
11:15	61.6	61.6	61.6	41	37.7	0	3	68	0.00	30.089 
11:20	61.8	61.8	61.8	40	37.2	0	3	68	0.00	30.089 
11:25	62.3	62.3	62.3	39	37.0	0	2	112	0.00	30.089 
11:30	62.6	62.6	62.6	37	36.0	1	3	112	0.00	30.090 
11:35	62.4	62.4	62.4	36	35.1	0	2	112	0.00	30.090 
11:40	62.7	62.7	62.7	38	36.7	0	1	112	0.00	30.090 
11:45	63.1	63.1	63.1	32	32.8	0	4	112	0.00	30.089 
11:50	63.4	63.4	63.4	33	33.8	0	2	112	0.00	30.089 
11:55	63.7	63.7	63.7	30	31.7	0	2	112	0.00	30.089 
12:00	64.0	64.0	64.0	33	34.3	0	2	112	0.00	30.087 
12:05	64.0	64.0	64.0	32	33.5	1	3	112	0.00	30.087 
12:10	64.2	64.2	64.2	32	33.7	1	5	112	0.00	30.087 
12:15	64.0	64.0	64.0	30	31.9	1	5	90	0.00	30.086 
12:20	64.0	64.0	64.0	31	32.8	1	4	90	0.00	30.086 
12:25	64.2	64.2	64.2	29	31.3	0	3	90	0.00	30.086 
12:30	64.5	64.5	64.5	28	30.7	0	3	90	0.00	30.082 
12:35	64.7	64.7	64.7	30	32.5	1	3	90	0.00	30.082 
12:40	64.8	64.8	64.8	28	30.9	1	4	90	0.00	30.082 
12:45	65.0	65.0	65.0	27	30.2	1	3	90	0.00	30.078 
12:50	65.2	65.2	65.2	28	31.3	1	3	45	0.00	30.078 
12:55	65.5	65.5	65.5	26	29.7	1	3	0	0.00	30.078 
13:00	65.5	65.5	65.5	27	30.6	1	3	135	0.00	30.072 
13:05	65.2	65.2	65.2	28	31.3	2	6	90	0.00	30.072 
13:10	65.2	65.2	65.2	28	31.3	0	3	90	0.00	30.072 
13:15	65.3	65.3	65.3	26	29.5	0	2	90	0.00	30.070 
13:20	65.5	65.5	65.5	26	29.7	1	3	90	0.00	30.070 
13:25	65.6	65.6	65.6	26	29.8	1	3	270	0.00	30.070 
13:30	66.0	66.0	66.0	28	32.0	0	5	112	0.00	30.065 
13:35	66.4	66.4	66.4	26	30.5	0	2	112	0.00	30.065 
13:40	66.3	66.3	66.3	25	29.4	1	3	45	0.00	30.065 
13:45	66.1	66.1	66.1	26	30.2	1	2	0	0.00	30.054 
13:50	66.0	66.0	66.0	25	29.2	1	2	0	0.00	30.054 
13:55	66.1	66.1	66.1	26	30.2	0	1	0	0.00	30.054 
14:00	66.0	66.0	66.0	26	30.1	0	2	0	0.00	30.049 
14:05	66.3	66.3	66.3	26	30.4	1	3	248	0.00	30.049 
14:10	66.4	66.4	66.4	26	30.5	1	3	270	0.00	30.049 
14:15	66.4	66.4	66.4	26	30.5	0	3	270	0.00	30.043 
14:20	66.4	66.4	66.4	26	30.5	0	3	270	0.00	30.043 
14:25	66.4	66.4	66.4	26	30.5	1	3	315	0.00	30.043 
14:30	66.6	66.6	66.6	26	30.6	0	2	315	0.00	30.038 
14:35	66.6	66.6	66.6	27	31.6	0	3	135	0.00	30.038 
14:40	66.6	66.6	66.6	27	31.6	0	4	135	0.00	30.038 
14:45	66.8	66.8	66.8	26	30.8	1	4	292	0.00	30.035 
14:50	66.9	66.9	66.9	25	29.9	1	5	292	0.00	30.035 
14:55	67.1	67.1	67.1	24	29.1	1	5	270	0.00	30.035 
15:00	66.9	66.9	66.9	23	27.9	1	4	315	0.00	30.027 
15:05	67.1	67.1	67.1	25	30.1	0	2	315	0.00	30.027 
15:10	67.1	67.1	67.1	25	30.1	0	2	315	0.00	30.027 
15:15	67.1	67.1	67.1	25	30.1	1	3	315	0.00	30.022 
15:20	67.1	67.1	67.1	24	29.1	1	3	315	0.00	30.022 
15:25	67.1	67.1	67.1	24	29.1	1	2	315	0.00	30.022 
15:30	67.1	67.1	67.1	24	29.1	1	3	315	0.00	30.022 
15:35	67.1	67.1	67.1	23	28.1	1	4	292	0.00	30.022 
15:40	67.1	67.1	67.1	24	29.1	1	4	315	0.00	30.022 
15:45	67.3	67.3	67.3	24	29.3	1	5	270	0.00	30.022 
15:50	67.4	67.4	67.4	24	29.4	1	6	270	0.00	30.022 
15:55	67.4	67.4	67.4	22	27.2	1	2	338	0.00	30.022 
16:00	67.3	67.3	67.3	22	27.2	0	2	338	0.00	30.022 
16:05	67.3	67.3	67.3	22	27.2	0	1	338	0.00	30.022 
16:10	67.4	67.4	67.4	22	27.2	1	3	315	0.00	30.022 
16:15	67.3	67.3	67.3	21	26.0	1	4	315	0.00	30.024 
16:20	67.1	67.1	67.1	23	28.1	1	4	315	0.00	30.024 
16:25	67.1	67.1	67.1	22	27.0	1	5	270	0.00	30.024 
16:30	66.9	66.9	66.9	24	28.9	1	4	338	0.00	30.027 
16:35	66.8	66.8	66.8	24	28.8	0	2	292	0.00	30.027 
16:40	66.6	66.6	66.6	24	28.7	1	3	292	0.00	30.027 
16:45	66.6	66.6	66.6	25	29.7	1	2	292	0.00	30.024 
16:50	66.4	66.4	66.4	25	29.5	1	3	292	0.00	30.024 
16:55	66.3	66.3	66.3	26	30.4	0	2	292	0.00	30.024 
17:00	66.3	66.3	66.3	26	30.4	0	1	292	0.00	30.024 
17:05	66.3	66.3	66.3	26	30.4	0	1	292	0.00	30.024 
17:10	66.3	66.3	66.3	26	30.4	1	3	315	0.00	30.024 
17:15	66.1	66.1	66.1	25	29.3	0	2	292	0.00	30.028 
17:20	66.1	66.1	66.1	26	30.2	0	2	292	0.00	30.028 
17:25	66.0	66.0	66.0	27	31.1	0	2	292	0.00	30.028 
17:30	66.0	66.0	66.0	28	32.0	0	1	292	0.00	30.025 
17:35	65.8	65.8	65.8	27	30.9	0	2	292	0.00	30.025 
17:40	65.6	65.6	65.6	27	30.7	0	1	292	0.00	30.025 
17:45	65.5	65.5	65.5	27	30.6	0	1	292	0.00	30.024 
17:50	65.3	65.3	65.3	28	31.4	0	4	315	0.00	30.024 
17:55	65.3	65.3	65.3	28	31.4	0	3	315	0.00	30.024 
18:00	65.2	65.2	65.2	29	32.1	0	1	315	0.00	30.026 
18:05	65.0	65.0	65.0	28	31.1	0	1	315	0.00	30.026 
18:10	64.8	64.8	64.8	28	30.9	0	2	315	0.00	30.026 
18:15	64.7	64.7	64.7	28	30.8	0	1	315	0.00	30.025 
18:20	64.3	64.3	64.3	29	31.4	0	1	315	0.00	30.025 
18:25	64.2	64.2	64.2	30	32.1	0	1	315	0.00	30.025 
18:30	63.9	63.9	63.9	31	32.7	0	1	315	0.00	30.025 
18:35	63.5	63.5	63.5	32	33.1	0	0	---	0.00	30.025 
18:40	63.1	63.1	63.1	32	32.8	0	0	---	0.00	30.025 
18:45	62.6	62.6	62.6	33	33.1	0	0	---	0.00	30.025 
18:50	62.3	62.3	62.3	35	34.3	0	0	---	0.00	30.025 
18:55	61.8	61.8	61.8	36	34.6	0	0	---	0.00	30.025 
19:00	61.3	61.3	61.3	37	34.8	0	0	---	0.00	30.026 
19:05	60.9	60.9	60.9	37	34.5	0	0	---	0.00	30.026 
19:10	60.2	60.2	60.2	39	35.2	0	0	---	0.00	30.026 
19:15	59.6	59.6	59.6	39	34.6	0	0	---	0.00	30.031 
19:20	59.0	59.0	59.0	41	35.3	0	0	---	0.00	30.031 
19:25	58.3	58.3	58.3	42	35.3	0	0	---	0.00	30.031 
19:30	57.6	57.6	57.6	44	35.8	0	0	---	0.00	30.032 
19:35	57.0	57.0	57.0	46	36.4	0	0	---	0.00	30.032 
19:40	56.6	56.6	56.6	46	36.1	0	0	---	0.00	30.032 
19:45	56.0	56.0	56.0	48	36.6	0	0	---	0.00	30.034 
19:50	55.6	55.6	55.6	49	36.7	0	0	---	0.00	30.034 
19:55	55.1	55.1	55.1	50	36.8	0	0	---	0.00	30.034 
20:00	54.8	54.8	54.8	50	36.5	0	1	315	0.00	30.037 
20:05	55.4	55.4	55.4	48	36.0	0	0	---	0.00	30.037 
20:10	56.2	56.2	56.2	46	35.7	0	1	315	0.00	30.037 
20:15	56.6	56.6	56.6	44	34.9	0	0	---	0.00	30.039 
20:20	56.7	56.7	56.7	44	35.0	0	0	---	0.00	30.039 
20:25	56.6	56.6	56.6	43	34.4	0	0	---	0.00	30.039 
20:30	56.3	56.3	56.3	43	34.1	0	0	---	0.00	30.040 
20:35	56.2	56.2	56.2	43	34.0	0	0	---	0.00	30.040 
20:40	55.9	55.9	55.9	43	33.7	0	0	---	0.00	30.040 
20:45	55.7	55.7	55.7	42	33.0	0	0	---	0.00	30.043 
20:50	55.6	55.6	55.6	42	32.9	0	0	---	0.00	30.043 
20:55	55.4	55.4	55.4	41	32.1	0	0	---	0.00	30.043 
21:00	55.3	55.3	55.3	41	32.0	0	0	---	0.00	30.043 
21:05	55.0	55.0	55.0	42	32.3	0	0	---	0.00	30.043 
21:10	54.7	54.7	54.7	41	31.5	0	0	---	0.00	30.043 
21:15	54.5	54.5	54.5	42	31.9	0	0	---	0.00	30.037 
21:20	54.2	54.2	54.2	42	31.6	0	0	---	0.00	30.037 
21:25	53.9	53.9	53.9	42	31.3	0	0	---	0.00	30.037 
21:30	53.6	53.6	53.6	43	31.7	0	0	---	0.00	30.040 
21:35	53.5	53.5	53.5	43	31.6	0	0	---	0.00	30.040 
21:40	53.3	53.3	53.3	42	30.8	0	1	315	0.00	30.040 
21:45	53.5	53.5	53.5	42	31.0	0	0	---	0.00	30.044 
21:50	53.3	53.3	53.3	43	31.4	0	1	315	0.00	30.044 
21:55	53.2	53.2	53.2	43	31.3	0	1	315	0.00	30.044 
22:00	53.2	53.2	53.2	43	31.3	0	0	---	0.00	30.048 
22:05	53.1	53.1	53.1	43	31.2	0	1	315	0.00	30.048 
22:10	52.9	52.9	52.9	43	31.0	0	1	315	0.00	30.048 
22:15	52.8	52.8	52.8	44	31.5	0	0	---	0.00	30.042 
22:20	52.6	52.6	52.6	44	31.3	0	1	315	0.00	30.042 
22:25	52.3	52.3	52.3	45	31.6	0	0	---	0.00	30.042 
22:30	52.2	52.2	52.2	45	31.5	0	1	315	0.00	30.045 
22:35	52.0	52.0	52.0	46	31.9	0	0	---	0.00	30.045 
22:40	51.7	51.7	51.7	46	31.6	0	0	---	0.00	30.045 
22:45	51.6	51.6	51.6	47	32.0	0	0	---	0.00	30.045 
22:50	51.3	51.3	51.3	47	31.8	0	1	315	0.00	30.045 
22:55	51.1	51.1	51.1	48	32.1	0	0	---	0.00	30.045 
23:00	51.0	51.0	51.0	49	32.5	0	1	315	0.00	30.045 
23:05	50.7	50.7	50.7	49	32.2	0	1	315	0.00	30.045 
23:10	50.4	50.4	50.4	50	32.5	0	0	---	0.00	30.045 
23:15	50.2	50.2	50.2	50	32.3	0	0	---	0.00	30.049 
23:20	49.9	49.9	49.9	51	32.5	0	0	---	0.00	30.049 
23:25	49.8	49.8	49.8	51	32.4	0	1	315	0.00	30.049 
23:30	49.6	49.6	49.6	52	32.7	0	0	---	0.00	30.055 
23:35	49.4	49.4	49.4	53	33.0	0	0	---	0.00	30.055 
23:40	49.2	49.2	49.2	53	32.8	0	0	---	0.00	30.055 
23:45	48.9	48.9	48.9	54	33.0	0	0	---	0.00	30.056 
23:50	48.8	48.8	48.8	54	32.9	0	0	---	0.00	30.056 
23:55	48.5	48.5	48.5	54	32.6	0	0	---	0.00	30.056 

CoCoRaHS
IN-AL-39
A2 Web Hosting
Creative Commons License
GoDaddy
search engine by freefind advanced

loaded 2018-11-17 12:41:41 • last modified 2010-11-18 10:43:29
Privacy PolicyDisclaimer
• wx.awcolley.com is powered by PmWiki v.2002016 •
• all content (unless otherwise noted) © 2018 A W Colley